Time;durP1;ratioP1;P1;durP2;ratioP2;P2;SDS_P1;SDS_P2;PMS_P1;PMS_P2;Temp;Humidity;BMP_temperature;BMP_pressure;BME280_temperature;BME280_humidity;BME280_pressure;Samples;Min_cycle;Max_cycle;Signal;HPM_P1;HPM_P2
2022/10/05 00:02:24;;;;;;;1.50;1.30;;;;;;;;;;5020505;28;20270;-83
2022/10/05 00:04:55;;;;;;;1.92;1.60;;;;;;;;;;5019435;28;20664;-84
2022/10/05 00:07:25;;;;;;;1.70;1.55;;;;;;;;;;5019618;28;20233;-84
2022/10/05 00:09:56;;;;;;;1.88;1.75;;;;;;;;;;5019436;28;20222;-84
2022/10/05 00:12:29;;;;;;;1.70;1.60;;;;;;;;;;5019453;28;20572;-84
2022/10/05 00:15:00;;;;;;;1.73;1.55;;;;;;;;;;5018492;28;20203;-83
2022/10/05 00:17:30;;;;;;;1.55;1.45;;;;;;;;;;5030503;28;20203;-82
2022/10/05 00:20:01;;;;;;;1.70;1.60;;;;;;;;;;5038498;28;20285;-83
2022/10/05 00:22:33;;;;;;;1.48;1.38;;;;;;;;;;5038426;28;20570;-83
2022/10/05 00:25:10;;;;;;;2.10;1.75;;;;;;;;;;5038198;28;20296;-83
2022/10/05 00:27:38;;;;;;;1.60;1.50;;;;;;;;;;5037671;28;20322;-83
2022/10/05 00:30:18;;;;;;;1.50;1.40;;;;;;;;;;5038249;28;20600;-83
2022/10/05 00:32:46;;;;;;;1.60;1.50;;;;;;;;;;5038472;28;20285;-83
2022/10/05 00:35:17;;;;;;;1.33;1.23;;;;;;;;;;5038676;28;20230;-83
2022/10/05 00:37:47;;;;;;;1.70;1.60;;;;;;;;;;5038011;28;20249;-83
2022/10/05 00:40:30;;;;;;;1.92;1.83;;;;;;;;;;5037717;28;20735;-83
2022/10/05 00:43:23;;;;;;;2.22;2.13;;;;;;;;;;5037998;28;20675;-83
2022/10/05 00:45:53;;;;;;;1.85;1.75;;;;;;;;;;5026207;28;20294;-83
2022/10/05 00:48:29;;;;;;;1.70;1.60;;;;;;;;;;5018381;28;20277;-83
2022/10/05 00:51:11;;;;;;;2.55;1.73;;;;;;;;;;5018574;28;20245;-83
2022/10/05 00:53:46;;;;;;;1.50;1.40;;;;;;;;;;5019208;28;20234;-82
2022/10/05 00:56:31;;;;;;;1.50;1.40;;;;;;;;;;5018177;28;20263;-82
2022/10/05 00:59:07;;;;;;;2.10;1.90;;;;;;;;;;5017539;28;20293;-82
2022/10/05 01:01:39;;;;;;;1.88;1.77;;;;;;;;;;5017547;28;20314;-82
2022/10/05 01:04:16;;;;;;;1.60;1.50;;;;;;;;;;5017898;28;20203;-83
2022/10/05 01:06:56;;;;;;;3.03;1.40;;;;;;;;;;5017683;28;20210;-82
2022/10/05 01:09:33;;;;;;;1.83;1.45;;;;;;;;;;5016400;28;20583;-82
2022/10/05 01:12:06;;;;;;;2.75;2.20;;;;;;;;;;5017755;28;20215;-82
2022/10/05 01:14:42;;;;;;;1.50;1.35;;;;;;;;;;5017413;28;20576;-82
2022/10/05 01:17:15;;;;;;;1.63;1.40;;;;;;;;;;5017365;28;20206;-82
2022/10/05 01:20:27;;;;;;;1.50;1.40;;;;;;;;;;5017611;28;20195;-82
2022/10/05 01:23:32;;;;;;;1.40;1.35;;;;;;;;;;4994290;28;20245;-82
2022/10/05 01:26:17;;;;;;;2.67;2.47;;;;;;;;;;5016334;28;20206;-82
2022/10/05 01:28:49;;;;;;;1.90;1.80;;;;;;;;;;5015783;28;20226;-83
2022/10/05 01:31:24;;;;;;;1.63;1.52;;;;;;;;;;5016163;28;20225;-83
2022/10/05 01:33:55;;;;;;;2.08;1.98;;;;;;;;;;5016626;28;20198;-83
2022/10/05 01:36:31;;;;;;;2.35;2.17;;;;;;;;;;5016238;28;20211;-82
2022/10/05 01:39:05;;;;;;;2.53;2.33;;;;;;;;;;5015626;28;20195;-83
2022/10/05 01:41:39;;;;;;;3.30;2.03;;;;;;;;;;5015642;28;20597;-82
2022/10/05 01:44:13;;;;;;;2.28;2.17;;;;;;;;;;5015651;28;20221;-83
2022/10/05 01:46:45;;;;;;;4.07;2.10;;;;;;;;;;5015794;28;20650;-82
2022/10/05 01:49:35;;;;;;;2.47;2.28;;;;;;;;;;5015336;28;20313;-82
2022/10/05 01:52:17;;;;;;;2.72;2.00;;;;;;;;;;5015434;28;20318;-82
2022/10/05 01:54:57;;;;;;;3.05;2.13;;;;;;;;;;5015078;28;20294;-83
2022/10/05 01:57:35;;;;;;;2.83;1.63;;;;;;;;;;5015638;28;20273;-83
2022/10/05 02:00:08;;;;;;;2.47;2.28;;;;;;;;;;5015348;28;20206;-83
2022/10/05 02:02:39;;;;;;;2.50;2.30;;;;;;;;;;5095510;23;20322;-81
2022/10/05 02:05:13;;;;;;;2.40;2.20;;;;;;;;;;5094766;28;20218;-80
2022/10/05 02:07:45;;;;;;;2.80;2.60;;;;;;;;;;5095128;28;20180;-82
2022/10/05 02:10:20;;;;;;;2.50;2.30;;;;;;;;;;5095798;28;20212;-82
2022/10/05 02:12:53;;;;;;;3.42;2.45;;;;;;;;;;5075177;28;20629;-82
2022/10/05 02:15:27;;;;;;;4.07;2.90;;;;;;;;;;5074948;28;20204;-83
2022/10/05 02:17:59;;;;;;;2.65;2.33;;;;;;;;;;5074776;28;20195;-80
2022/10/05 02:20:30;;;;;;;3.22;2.55;;;;;;;;;;5075674;28;20192;-80
2022/10/05 02:23:02;;;;;;;2.72;2.53;;;;;;;;;;5080390;28;20197;-81
2022/10/05 02:25:33;;;;;;;3.58;2.45;;;;;;;;;;5079619;28;20281;-80
2022/10/05 02:28:04;;;;;;;2.67;2.40;;;;;;;;;;5079939;28;20278;-81
2022/10/05 02:30:37;;;;;;;2.95;2.10;;;;;;;;;;5080324;28;20223;-81
2022/10/05 02:33:09;;;;;;;2.65;2.35;;;;;;;;;;5080351;28;20189;-82
2022/10/05 02:35:37;;;;;;;2.70;1.95;;;;;;;;;;5080408;28;20209;-80
2022/10/05 02:38:23;;;;;;;2.00;1.85;;;;;;;;;;5079432;28;20228;-80
2022/10/05 02:40:57;;;;;;;3.10;1.88;;;;;;;;;;5080380;28;20304;-81
2022/10/05 02:43:37;;;;;;;3.22;2.40;;;;;;;;;;5080012;28;20193;-80
2022/10/05 02:46:15;;;;;;;2.17;1.90;;;;;;;;;;5079891;28;20243;-82
2022/10/05 02:48:48;;;;;;;1.80;1.65;;;;;;;;;;5080348;28;20181;-80
2022/10/05 02:51:23;;;;;;;2.40;2.20;;;;;;;;;;5080852;28;20251;-83
2022/10/05 02:54:03;;;;;;;2.40;2.20;;;;;;;;;;5080956;28;20620;-82
2022/10/05 02:56:35;;;;;;;1.80;1.70;;;;;;;;;;5079925;28;20224;-82
2022/10/05 02:59:10;;;;;;;2.40;2.22;;;;;;;;;;5079383;28;20224;-83
2022/10/05 03:01:44;;;;;;;2.92;1.92;;;;;;;;;;5079733;28;20238;-81
2022/10/05 03:04:26;;;;;;;3.03;2.72;;;;;;;;;;5079721;28;20280;-80
2022/10/05 03:07:04;;;;;;;3.55;2.88;;;;;;;;;;5078288;28;20288;-81
2022/10/05 03:09:36;;;;;;;2.78;2.58;;;;;;;;;;5079069;28;20213;-82
2022/10/05 03:12:11;;;;;;;2.58;2.38;;;;;;;;;;5078686;28;20658;-82
2022/10/05 03:14:45;;;;;;;2.95;2.70;;;;;;;;;;5079471;28;20192;-82
2022/10/05 03:17:17;;;;;;;3.35;3.05;;;;;;;;;;5079166;28;20216;-84
2022/10/05 03:20:02;;;;;;;2.50;2.30;;;;;;;;;;5079038;28;20186;-82
2022/10/05 03:22:46;;;;;;;3.58;2.08;;;;;;;;;;5079171;28;20266;-80
2022/10/05 03:25:56;;;;;;;2.17;2.00;;;;;;;;;;5078856;28;20197;-83
2022/10/05 03:28:30;;;;;;;2.10;2.00;;;;;;;;;;5079044;28;20272;-81
2022/10/05 03:31:03;;;;;;;2.55;2.35;;;;;;;;;;5078013;28;20312;-83
2022/10/05 03:33:41;;;;;;;3.63;3.03;;;;;;;;;;5077486;28;20181;-83
2022/10/05 03:36:17;;;;;;;2.60;2.40;;;;;;;;;;5078558;28;20182;-84
2022/10/05 03:38:50;;;;;;;2.25;2.15;;;;;;;;;;5078385;28;20275;-83
2022/10/05 03:41:26;;;;;;;3.40;3.10;;;;;;;;;;5078021;28;20221;-83
2022/10/05 03:44:14;;;;;;;4.03;2.30;;;;;;;;;;5079237;28;20281;-83
2022/10/05 03:47:04;;;;;;;2.92;2.58;;;;;;;;;;5079212;28;20272;-82
2022/10/05 03:49:46;;;;;;;2.30;2.03;;;;;;;;;;5078866;28;20205;-83
2022/10/05 03:52:18;;;;;;;3.25;2.95;;;;;;;;;;5078519;28;20685;-82
2022/10/05 03:54:49;;;;;;;2.78;2.50;;;;;;;;;;5079323;28;20717;-83
2022/10/05 03:57:20;;;;;;;2.38;2.17;;;;;;;;;;5077857;28;20228;-83
2022/10/05 03:59:56;;;;;;;2.70;2.50;;;;;;;;;;5078064;28;20181;-83
2022/10/05 04:02:26;;;;;;;2.90;2.70;;;;;;;;;;5077893;28;20229;-83
2022/10/05 04:05:00;;;;;;;2.92;2.30;;;;;;;;;;5077325;28;20287;-83
2022/10/05 04:07:36;;;;;;;2.65;2.45;;;;;;;;;;5078511;28;20252;-83
2022/10/05 04:10:10;;;;;;;2.45;2.25;;;;;;;;;;5076580;28;20205;-83
2022/10/05 04:12:41;;;;;;;2.95;2.65;;;;;;;;;;5077910;28;20248;-83
2022/10/05 04:15:18;;;;;;;3.50;3.10;;;;;;;;;;5078222;28;20193;-83
2022/10/05 04:17:48;;;;;;;3.38;2.75;;;;;;;;;;5077109;28;20193;-83
2022/10/05 04:20:21;;;;;;;4.40;3.45;;;;;;;;;;5077166;28;20189;-82
2022/10/05 04:22:59;;;;;;;2.53;2.33;;;;;;;;;;5076803;28;20186;-83
2022/10/05 04:25:29;;;;;;;2.13;2.03;;;;;;;;;;5076248;28;20189;-83
2022/10/05 04:28:05;;;;;;;2.47;2.28;;;;;;;;;;5075841;28;20205;-83
2022/10/05 04:30:34;;;;;;;3.15;2.85;;;;;;;;;;5075966;28;20276;-83
2022/10/05 04:33:01;;;;;;;3.45;2.85;;;;;;;;;;5078100;28;20287;-83
2022/10/05 04:35:45;;;;;;;2.75;2.45;;;;;;;;;;5077203;28;20292;-83
2022/10/05 04:38:29;;;;;;;2.25;2.05;;;;;;;;;;5077530;28;20540;-83
2022/10/05 04:41:13;;;;;;;1.90;1.80;;;;;;;;;;5076777;28;20248;-83
2022/10/05 04:43:54;;;;;;;2.50;2.30;;;;;;;;;;5078509;28;20267;-83
2022/10/05 04:46:38;;;;;;;3.35;2.78;;;;;;;;;;5077550;28;20190;-82
2022/10/05 04:49:24;;;;;;;2.85;2.65;;;;;;;;;;5076363;28;20281;-83
2022/10/05 04:52:00;;;;;;;2.50;2.30;;;;;;;;;;5075905;28;20831;-83
2022/10/05 04:54:41;;;;;;;3.13;2.83;;;;;;;;;;5077231;28;20539;-81
2022/10/05 04:57:13;;;;;;;4.43;4.03;;;;;;;;;;5076907;28;20686;-80
2022/10/05 05:00:04;;;;;;;2.90;2.60;;;;;;;;;;5076950;28;20201;-82
2022/10/05 05:02:45;;;;;;;3.53;3.22;;;;;;;;;;5075290;28;20250;-81
2022/10/05 05:05:33;;;;;;;2.45;2.25;;;;;;;;;;5075878;28;20268;-82
2022/10/05 05:08:15;;;;;;;6.47;4.15;;;;;;;;;;5075137;28;20268;-81
2022/10/05 05:11:06;;;;;;;2.70;2.50;;;;;;;;;;5075702;28;20229;-81
2022/10/05 05:14:13;;;;;;;2.42;2.22;;;;;;;;;;5075097;28;20268;-82
2022/10/05 05:16:43;;;;;;;3.65;2.90;;;;;;;;;;5074667;28;20239;-80
2022/10/05 05:19:38;;;;;;;3.53;3.22;;;;;;;;;;5075308;28;20200;-81
2022/10/05 05:22:11;;;;;;;4.88;3.50;;;;;;;;;;5068941;28;20217;-79
2022/10/05 05:24:53;;;;;;;5.07;3.60;;;;;;;;;;5076053;28;20182;-79
2022/10/05 05:27:43;;;;;;;3.38;3.05;;;;;;;;;;5076298;28;20189;-80
2022/10/05 05:30:21;;;;;;;2.97;2.70;;;;;;;;;;5076997;28;20236;-82
2022/10/05 05:33:03;;;;;;;4.07;2.55;;;;;;;;;;5076362;28;20204;-81
2022/10/05 05:35:57;;;;;;;4.28;3.90;;;;;;;;;;5075619;28;20217;-81
2022/10/05 05:38:31;;;;;;;4.30;3.88;;;;;;;;;;5074843;28;20193;-79
2022/10/05 05:41:09;;;;;;;2.88;2.65;;;;;;;;;;5074802;28;20221;-81
2022/10/05 05:43:53;;;;;;;4.40;3.53;;;;;;;;;;5074191;28;20185;-80
2022/10/05 05:46:26;;;;;;;4.82;4.07;;;;;;;;;;5074211;28;20200;-81
2022/10/05 05:48:55;;;;;;;3.60;3.30;;;;;;;;;;5073601;28;20692;-80
2022/10/05 05:51:29;;;;;;;3.35;3.05;;;;;;;;;;5074122;28;20710;-81
2022/10/05 05:54:10;;;;;;;3.40;3.10;;;;;;;;;;5073667;28;20177;-79
2022/10/05 05:56:44;;;;;;;2.88;2.60;;;;;;;;;;5073332;28;20560;-80
2022/10/05 05:59:15;;;;;;;3.20;2.97;;;;;;;;;;5074023;28;20181;-82
2022/10/05 06:01:49;;;;;;;4.32;3.92;;;;;;;;;;5075885;28;20263;-83
2022/10/05 06:04:18;;;;;;;4.78;4.22;;;;;;;;;;5078895;28;20224;-83
2022/10/05 06:06:49;;;;;;;6.20;4.60;;;;;;;;;;5079668;28;20292;-83
2022/10/05 06:09:22;;;;;;;7.15;5.68;;;;;;;;;;5079489;28;20248;-83
2022/10/05 06:11:55;;;;;;;5.75;5.25;;;;;;;;;;5078445;28;20310;-84
2022/10/05 06:14:28;;;;;;;9.60;7.07;;;;;;;;;;5078686;28;20189;-84
2022/10/05 06:17:00;;;;;;;10.02;7.40;;;;;;;;;;5076996;28;20189;-84
2022/10/05 06:19:28;;;;;;;7.95;6.72;;;;;;;;;;5077465;28;20276;-82
2022/10/05 06:21:59;;;;;;;8.20;7.38;;;;;;;;;;5079719;28;20300;-82
2022/10/05 06:24:31;;;;;;;8.10;6.90;;;;;;;;;;5079461;28;20188;-81
2022/10/05 06:27:17;;;;;;;9.18;6.50;;;;;;;;;;5079312;28;20717;-82
2022/10/05 06:30:08;;;;;;;6.90;6.20;;;;;;;;;;5078701;28;20195;-80
2022/10/05 06:32:49;;;;;;;9.75;8.02;;;;;;;;;;5076303;28;20259;-82
2022/10/05 06:35:23;;;;;;;6.63;6.00;;;;;;;;;;5076835;28;20201;-82
2022/10/05 06:38:24;;;;;;;5.82;5.05;;;;;;;;;;5078657;28;20190;-83
2022/10/05 06:41:05;;;;;;;4.97;4.57;;;;;;;;;;5076672;28;20217;-83
2022/10/05 06:43:47;;;;;;;8.07;7.25;;;;;;;;;;5075632;28;20187;-82
2022/10/05 06:46:21;;;;;;;6.78;5.57;;;;;;;;;;5075691;28;20676;-82
2022/10/05 06:49:06;;;;;;;7.30;6.45;;;;;;;;;;5075789;28;20192;-84
2022/10/05 06:51:41;;;;;;;10.48;7.72;;;;;;;;;;5075405;28;20613;-82
2022/10/05 06:54:22;;;;;;;7.65;6.57;;;;;;;;;;5075441;28;20193;-83
2022/10/05 06:56:55;;;;;;;7.45;6.72;;;;;;;;;;5076596;28;20669;-83
2022/10/05 06:59:28;;;;;;;5.97;4.85;;;;;;;;;;5077241;28;20181;-83
2022/10/05 07:02:03;;;;;;;5.00;4.50;;;;;;;;;;5076513;28;20221;-82
2022/10/05 07:05:02;;;;;;;7.95;6.68;;;;;;;;;;5076161;28;20180;-83
2022/10/05 07:07:35;;;;;;;7.82;6.20;;;;;;;;;;5077546;28;20189;-83
2022/10/05 07:10:17;;;;;;;7.00;6.30;;;;;;;;;;5080146;28;20192;-84
2022/10/05 07:12:57;;;;;;;8.02;7.22;;;;;;;;;;5078045;28;20225;-81
2022/10/05 07:15:42;;;;;;;7.25;6.20;;;;;;;;;;5079366;28;20264;-82
2022/10/05 07:18:37;;;;;;;9.02;6.68;;;;;;;;;;5079760;28;20657;-80
2022/10/05 07:21:11;;;;;;;6.45;5.80;;;;;;;;;;5078113;28;20217;-84
2022/10/05 07:23:51;;;;;;;7.55;6.85;;;;;;;;;;5077573;28;20189;-83
2022/10/05 07:26:25;;;;;;;6.03;5.35;;;;;;;;;;5079421;28;20193;-83
2022/10/05 07:29:12;;;;;;;5.10;4.70;;;;;;;;;;5080196;28;20184;-83
2022/10/05 07:31:48;;;;;;;4.85;4.45;;;;;;;;;;5079767;28;20255;-84
2022/10/05 07:34:23;;;;;;;7.68;5.80;;;;;;;;;;5079044;28;20189;-85
2022/10/05 07:39:46;;;;;;;4.93;4.53;;;;;;;;;;5081370;28;20189;-83
2022/10/05 07:42:26;;;;;;;4.50;4.10;;;;;;;;;;5080865;28;20212;-82
2022/10/05 07:44:58;;;;;;;5.15;4.65;;;;;;;;;;5079708;28;20185;-83
2022/10/05 07:47:35;;;;;;;6.78;6.07;;;;;;;;;;5079574;28;20191;-82
2022/10/05 07:50:08;;;;;;;4.88;4.43;;;;;;;;;;5079545;28;20272;-81
2022/10/05 07:52:39;;;;;;;5.00;4.50;;;;;;;;;;5079713;28;20263;-83
2022/10/05 07:55:17;;;;;;;4.00;3.60;;;;;;;;;;5078488;28;20181;-81
2022/10/05 07:57:52;;;;;;;4.25;3.85;;;;;;;;;;5078452;28;20272;-84
2022/10/05 08:00:22;;;;;;;5.85;5.22;;;;;;;;;;5077649;28;20652;-82
2022/10/05 08:03:38;;;;;;;5.25;4.75;;;;;;;;;;5119842;22;20238;-85
2022/10/05 08:06:50;;;;;;;5.72;4.68;;;;;;;;;;5092866;28;20695;-85
2022/10/05 08:09:37;;;;;;;4.75;4.35;;;;;;;;;;5103276;28;20200;-84
2022/10/05 08:15:56;;;;;;;4.47;4.07;;;;;;;;;;5102093;28;20208;-85
2022/10/05 08:18:53;;;;;;;5.22;4.35;;;;;;;;;;5099553;28;20596;-85
2022/10/05 08:24:46;;;;;;;5.95;5.35;;;;;;;;;;5097239;28;20215;-86
2022/10/05 08:27:17;;;;;;;4.93;4.20;;;;;;;;;;5097792;28;20249;-85
2022/10/05 08:29:57;;;;;;;5.88;5.05;;;;;;;;;;5101413;28;20253;-85
2022/10/05 08:32:29;;;;;;;5.97;5.05;;;;;;;;;;5099597;28;20731;-85
2022/10/05 08:35:04;;;;;;;7.50;5.90;;;;;;;;;;5096977;28;20243;-87
2022/10/05 08:44:05;;;;;;;5.15;4.55;;;;;;;;;;5101400;28;20233;-82
2022/10/05 08:47:07;;;;;;;5.03;4.43;;;;;;;;;;5079723;28;20246;-81
2022/10/05 08:50:10;;;;;;;5.65;5.00;;;;;;;;;;5099037;28;20212;-82
2022/10/05 08:53:02;;;;;;;6.07;4.93;;;;;;;;;;5098012;28;20255;-81
2022/10/05 08:55:41;;;;;;;5.20;4.70;;;;;;;;;;5086434;28;20230;-83
2022/10/05 08:58:42;;;;;;;5.10;4.68;;;;;;;;;;5099244;28;20286;-81
2022/10/05 09:01:19;;;;;;;6.13;5.53;;;;;;;;;;5099370;28;20205;-81
2022/10/05 09:04:15;;;;;;;6.78;4.75;;;;;;;;;;5099305;28;20761;-81
2022/10/05 09:07:33;;;;;;;4.80;3.95;;;;;;;;;;5097000;28;20578;-83
2022/10/05 09:10:53;;;;;;;5.60;5.10;;;;;;;;;;5039703;28;20232;-82
2022/10/05 09:14:18;;;;;;;5.13;4.60;;;;;;;;;;5030137;28;20695;-81
2022/10/05 09:17:10;;;;;;;4.38;3.97;;;;;;;;;;5101432;28;20231;-81
2022/10/05 09:20:13;;;;;;;5.00;4.50;;;;;;;;;;5098501;28;20235;-82
2022/10/05 09:22:59;;;;;;;4.25;3.95;;;;;;;;;;5099794;28;20211;-79
2022/10/05 09:25:42;;;;;;;4.90;4.50;;;;;;;;;;5104734;28;20287;-81
2022/10/05 09:28:25;;;;;;;4.50;4.10;;;;;;;;;;5102127;28;20204;-82
2022/10/05 09:31:34;;;;;;;7.28;5.88;;;;;;;;;;5100624;28;20715;-83
2022/10/05 09:34:41;;;;;;;4.35;3.95;;;;;;;;;;5099550;28;20742;-82
2022/10/05 09:37:33;;;;;;;5.53;5.03;;;;;;;;;;5098758;28;20587;-82
2022/10/05 09:41:04;;;;;;;5.25;4.47;;;;;;;;;;5099775;28;20208;-83
2022/10/05 09:44:13;;;;;;;4.82;4.43;;;;;;;;;;5099366;28;20275;-83
2022/10/05 09:46:58;;;;;;;5.32;4.63;;;;;;;;;;5099748;28;20295;-82
2022/10/05 09:49:49;;;;;;;4.82;4.22;;;;;;;;;;5099609;28;20192;-83
2022/10/05 09:52:31;;;;;;;4.95;4.55;;;;;;;;;;5099002;28;20210;-82
2022/10/05 09:55:39;;;;;;;5.25;4.10;;;;;;;;;;5097782;28;20555;-83
2022/10/05 09:58:42;;;;;;;5.30;3.60;;;;;;;;;;5096466;28;20208;-82
2022/10/05 10:01:45;;;;;;;4.55;3.92;;;;;;;;;;5095740;28;20231;-83
2022/10/05 10:04:38;;;;;;;3.45;3.15;;;;;;;;;;5061393;28;20601;-82
2022/10/05 10:07:43;;;;;;;4.35;3.85;;;;;;;;;;5095344;28;20201;-83
2022/10/05 10:10:48;;;;;;;3.20;2.90;;;;;;;;;;5097238;28;20211;-82
2022/10/05 10:13:44;;;;;;;3.28;2.97;;;;;;;;;;5097265;28;20235;-83
2022/10/05 10:16:22;;;;;;;3.08;2.85;;;;;;;;;;5096155;28;20223;-83
2022/10/05 10:19:16;;;;;;;3.55;3.08;;;;;;;;;;5096872;28;20230;-82
2022/10/05 10:22:30;;;;;;;4.25;3.83;;;;;;;;;;5095808;28;20294;-83
2022/10/05 10:25:18;;;;;;;7.47;4.18;;;;;;;;;;5094921;28;20307;-83
2022/10/05 10:28:19;;;;;;;4.15;3.55;;;;;;;;;;5096400;28;20208;-83
2022/10/05 10:30:59;;;;;;;2.22;2.13;;;;;;;;;;5094961;28;20663;-82
2022/10/05 10:33:55;;;;;;;3.20;2.90;;;;;;;;;;5091931;28;20216;-83
2022/10/05 10:36:32;;;;;;;2.50;2.30;;;;;;;;;;5075836;28;20284;-83
2022/10/05 10:39:04;;;;;;;2.95;2.75;;;;;;;;;;5075792;28;20228;-83
2022/10/05 10:42:06;;;;;;;2.58;2.38;;;;;;;;;;5096397;28;20208;-83
2022/10/05 10:45:13;;;;;;;2.72;2.47;;;;;;;;;;5099465;28;20593;-84
2022/10/05 10:48:01;;;;;;;2.60;2.40;;;;;;;;;;5095332;28;20206;-84
2022/10/05 10:50:56;;;;;;;3.00;1.98;;;;;;;;;;5097132;28;20236;-84
2022/10/05 10:54:20;;;;;;;3.30;2.45;;;;;;;;;;5098066;28;20308;-83
2022/10/05 10:56:56;;;;;;;2.55;2.00;;;;;;;;;;5062093;28;20211;-85
2022/10/05 11:00:14;;;;;;;2.00;1.85;;;;;;;;;;5098740;28;20294;-84
2022/10/05 11:03:29;;;;;;;2.22;2.05;;;;;;;;;;5099483;28;20216;-85
2022/10/05 11:06:53;;;;;;;1.60;1.50;;;;;;;;;;5097095;28;20200;-85
2022/10/05 11:09:56;;;;;;;2.80;2.40;;;;;;;;;;5094244;28;20200;-84
2022/10/05 11:13:24;;;;;;;3.67;2.40;;;;;;;;;;5060390;28;20215;-84
2022/10/05 11:16:40;;;;;;;1.92;1.83;;;;;;;;;;5014762;28;20209;-84
2022/10/05 11:19:55;;;;;;;2.92;1.92;;;;;;;;;;5014562;28;20257;-83
2022/10/05 11:22:58;;;;;;;1.60;1.50;;;;;;;;;;5096894;28;20197;-84
2022/10/05 11:25:56;;;;;;;2.00;1.73;;;;;;;;;;5094401;28;20206;-84
2022/10/05 11:28:49;;;;;;;2.50;2.30;;;;;;;;;;5084080;28;20197;-84
2022/10/05 11:32:11;;;;;;;1.50;1.40;;;;;;;;;;5097962;28;20586;-84
2022/10/05 11:35:29;;;;;;;1.73;1.63;;;;;;;;;;5047786;28;20236;-85
2022/10/05 11:38:31;;;;;;;1.85;1.75;;;;;;;;;;5040968;28;20605;-84
2022/10/05 11:41:40;;;;;;;1.50;1.40;;;;;;;;;;5091472;28;20214;-84
2022/10/05 11:44:52;;;;;;;1.50;1.40;;;;;;;;;;5096491;28;20251;-85
2022/10/05 11:47:23;;;;;;;1.45;1.35;;;;;;;;;;4995808;28;20192;-84
2022/10/05 11:50:04;;;;;;;2.00;1.67;;;;;;;;;;5068221;28;20233;-84
2022/10/05 11:52:37;;;;;;;1.73;1.63;;;;;;;;;;5076815;28;20204;-84
2022/10/05 11:55:18;;;;;;;1.90;1.60;;;;;;;;;;5076568;28;20230;-85
2022/10/05 11:57:52;;;;;;;2.15;1.63;;;;;;;;;;5077876;28;20209;-85
2022/10/05 12:00:21;;;;;;;1.60;1.50;;;;;;;;;;5076979;28;20200;-84
2022/10/05 12:03:19;;;;;;;1.83;1.73;;;;;;;;;;5076796;28;20211;-86
2022/10/05 12:06:12;;;;;;;2.20;2.00;;;;;;;;;;5076864;28;20207;-84
2022/10/05 12:08:49;;;;;;;3.40;2.40;;;;;;;;;;5076647;28;20582;-85
2022/10/05 12:11:37;;;;;;;1.70;1.60;;;;;;;;;;5077609;28;20223;-85
2022/10/05 12:14:12;;;;;;;1.88;1.77;;;;;;;;;;5077093;28;20229;-85
2022/10/05 12:16:44;;;;;;;2.28;1.70;;;;;;;;;;5097830;28;20209;-85
2022/10/05 12:19:17;;;;;;;3.53;2.75;;;;;;;;;;5096988;28;20291;-85
2022/10/05 12:21:50;;;;;;;2.50;2.30;;;;;;;;;;5096745;28;20671;-85
2022/10/05 12:24:24;;;;;;;1.40;1.30;;;;;;;;;;5096083;28;20661;-85
2022/10/05 12:26:56;;;;;;;2.40;2.20;;;;;;;;;;5095362;28;20214;-86
2022/10/05 12:29:28;;;;;;;2.20;1.98;;;;;;;;;;5096034;28;20201;-85
2022/10/05 12:32:01;;;;;;;2.05;1.83;;;;;;;;;;5095871;28;20216;-86
2022/10/05 12:34:40;;;;;;;1.70;1.60;;;;;;;;;;5083287;28;20307;-85
2022/10/05 12:37:27;;;;;;;1.52;1.42;;;;;;;;;;5075248;28;20201;-85
2022/10/05 12:40:01;;;;;;;1.73;1.63;;;;;;;;;;5082333;28;20582;-85
2022/10/05 12:42:34;;;;;;;2.72;2.30;;;;;;;;;;5096893;28;20211;-85
2022/10/05 12:45:16;;;;;;;2.40;2.20;;;;;;;;;;5096147;28;20309;-85
2022/10/05 12:48:03;;;;;;;2.03;1.92;;;;;;;;;;5097034;28;20211;-85
2022/10/05 12:50:36;;;;;;;1.70;1.60;;;;;;;;;;5097391;28;20206;-84
2022/10/05 12:53:23;;;;;;;1.75;1.65;;;;;;;;;;5096195;28;20197;-84
2022/10/05 12:55:58;;;;;;;2.05;1.95;;;;;;;;;;5096390;28;20215;-85
2022/10/05 12:58:33;;;;;;;2.47;2.28;;;;;;;;;;5095074;28;20223;-86
2022/10/05 13:01:08;;;;;;;3.05;2.72;;;;;;;;;;5094785;28;20545;-85
2022/10/05 13:03:39;;;;;;;1.80;1.70;;;;;;;;;;5095340;28;20220;-85
2022/10/05 13:06:15;;;;;;;2.80;2.13;;;;;;;;;;5094730;28;20200;-86
2022/10/05 13:08:51;;;;;;;3.05;2.75;;;;;;;;;;5095877;28;20200;-85
2022/10/05 13:11:24;;;;;;;3.33;2.42;;;;;;;;;;5095853;28;20743;-85
2022/10/05 13:14:04;;;;;;;2.50;2.00;;;;;;;;;;5095498;28;20227;-84
2022/10/05 13:16:40;;;;;;;2.38;2.17;;;;;;;;;;5095824;28;20319;-85
2022/10/05 13:19:20;;;;;;;3.90;3.58;;;;;;;;;;5094628;28;20208;-85
2022/10/05 13:22:13;;;;;;;3.00;2.80;;;;;;;;;;5095690;28;20287;-84
2022/10/05 13:24:52;;;;;;;3.53;3.22;;;;;;;;;;5095377;28;20220;-84
2022/10/05 13:27:22;;;;;;;2.38;2.15;;;;;;;;;;5095947;28;20212;-84
2022/10/05 13:29:57;;;;;;;4.30;2.85;;;;;;;;;;5096145;28;20192;-85
2022/10/05 13:32:27;;;;;;;2.83;2.63;;;;;;;;;;5097279;28;20209;-85
2022/10/05 13:35:02;;;;;;;2.95;2.40;;;;;;;;;;5081305;28;20220;-85
2022/10/05 13:37:36;;;;;;;2.47;2.28;;;;;;;;;;5075657;28;20316;-85
2022/10/05 13:40:20;;;;;;;2.60;1.90;;;;;;;;;;5083379;28;20306;-85
2022/10/05 13:42:54;;;;;;;3.03;2.72;;;;;;;;;;5096378;28;20208;-85
2022/10/05 13:45:24;;;;;;;2.78;2.58;;;;;;;;;;5096342;28;20253;-85
2022/10/05 13:48:10;;;;;;;2.92;2.67;;;;;;;;;;5096869;28;20286;-85
2022/10/05 13:50:47;;;;;;;2.50;2.30;;;;;;;;;;5097536;28;20211;-85
2022/10/05 13:53:20;;;;;;;3.38;3.08;;;;;;;;;;5096149;28;20208;-86
2022/10/05 13:55:54;;;;;;;3.50;3.20;;;;;;;;;;5095698;28;20597;-85
2022/10/05 13:58:32;;;;;;;3.65;2.95;;;;;;;;;;5096032;28;20211;-85
2022/10/05 14:01:05;;;;;;;2.40;2.17;;;;;;;;;;5096579;28;20196;-84
2022/10/05 14:03:35;;;;;;;2.95;2.75;;;;;;;;;;5095992;28;20220;-85
2022/10/05 14:06:10;;;;;;;3.17;2.90;;;;;;;;;;5095214;28;20242;-85
2022/10/05 14:08:51;;;;;;;3.10;2.78;;;;;;;;;;5095055;28;20203;-85
2022/10/05 14:11:27;;;;;;;2.75;2.58;;;;;;;;;;5096963;28;20246;-85
2022/10/05 14:14:04;;;;;;;3.20;3.00;;;;;;;;;;5100185;28;20220;-85
2022/10/05 14:16:34;;;;;;;4.38;3.97;;;;;;;;;;5102849;28;20228;-85
2022/10/05 14:19:20;;;;;;;3.92;3.55;;;;;;;;;;5104541;28;20254;-86
2022/10/05 14:21:54;;;;;;;3.85;3.17;;;;;;;;;;5103646;28;20207;-85
2022/10/05 14:24:30;;;;;;;3.22;2.92;;;;;;;;;;5105069;28;20311;-85
2022/10/05 14:27:00;;;;;;;3.38;2.97;;;;;;;;;;5106563;28;20660;-85
2022/10/05 14:29:36;;;;;;;2.80;2.60;;;;;;;;;;5103547;28;20224;-84
2022/10/05 14:32:13;;;;;;;3.55;3.30;;;;;;;;;;5102262;28;20627;-85
2022/10/05 14:34:45;;;;;;;2.92;2.72;;;;;;;;;;5088984;28;20213;-85
2022/10/05 14:37:21;;;;;;;3.75;3.42;;;;;;;;;;5082990;28;20217;-85
2022/10/05 14:39:51;;;;;;;3.25;2.75;;;;;;;;;;5085548;28;20211;-84
2022/10/05 14:42:24;;;;;;;4.75;4.07;;;;;;;;;;5099964;28;20212;-85
2022/10/05 14:45:11;;;;;;;5.03;4.57;;;;;;;;;;5101553;28;20224;-84
2022/10/05 14:47:48;;;;;;;3.75;3.42;;;;;;;;;;5100133;28;20202;-84
2022/10/05 14:50:20;;;;;;;3.78;3.47;;;;;;;;;;5099100;28;20290;-85
2022/10/05 14:53:09;;;;;;;4.03;3.67;;;;;;;;;;5099276;28;20239;-85
2022/10/05 14:56:03;;;;;;;3.88;3.58;;;;;;;;;;5100168;28;20244;-85
2022/10/05 14:59:00;;;;;;;2.85;2.65;;;;;;;;;;5099267;28;20279;-85
2022/10/05 15:01:30;;;;;;;2.83;2.63;;;;;;;;;;5099264;28;20210;-86
2022/10/05 15:04:11;;;;;;;3.33;3.03;;;;;;;;;;5100248;28;20630;-85
2022/10/05 15:06:42;;;;;;;2.75;2.55;;;;;;;;;;5099050;28;20211;-85
2022/10/05 15:09:37;;;;;;;3.35;3.05;;;;;;;;;;5098245;28;20200;-84
2022/10/05 15:12:05;;;;;;;3.35;3.15;;;;;;;;;;5099709;28;20215;-85
2022/10/05 15:14:38;;;;;;;4.72;3.45;;;;;;;;;;5098510;28;20307;-84
2022/10/05 15:17:20;;;;;;;3.20;3.00;;;;;;;;;;5098836;28;20580;-84
2022/10/05 15:19:55;;;;;;;2.65;2.45;;;;;;;;;;5098652;28;20282;-85
2022/10/05 15:22:30;;;;;;;2.58;2.38;;;;;;;;;;5098448;28;20210;-84
2022/10/05 15:25:09;;;;;;;3.55;3.25;;;;;;;;;;5099074;28;20603;-82
2022/10/05 15:28:03;;;;;;;4.10;3.80;;;;;;;;;;5097993;28;20200;-83
2022/10/05 15:30:33;;;;;;;3.97;3.20;;;;;;;;;;5098922;28;20196;-84
2022/10/05 15:33:14;;;;;;;3.92;3.35;;;;;;;;;;5098769;28;20414;-82
2022/10/05 15:36:07;;;;;;;3.85;3.55;;;;;;;;;;5079196;28;20193;-82
2022/10/05 15:38:40;;;;;;;4.10;3.70;;;;;;;;;;5079248;28;20197;-84
2022/10/05 15:41:15;;;;;;;3.55;3.25;;;;;;;;;;5095739;28;20200;-83
2022/10/05 15:43:50;;;;;;;3.10;2.88;;;;;;;;;;5099499;28;20230;-83
2022/10/05 15:46:25;;;;;;;3.40;2.97;;;;;;;;;;5098744;28;20651;-84
2022/10/05 15:49:04;;;;;;;2.80;2.60;;;;;;;;;;5098637;28;20295;-83
2022/10/05 15:51:48;;;;;;;4.78;3.50;;;;;;;;;;5098929;28;20204;-83
2022/10/05 15:54:43;;;;;;;2.97;2.78;;;;;;;;;;5098797;28;20226;-82
2022/10/05 15:57:21;;;;;;;3.08;2.83;;;;;;;;;;5098185;28;20311;-83
2022/10/05 16:00:00;;;;;;;2.95;2.72;;;;;;;;;;5098016;28;20282;-84
2022/10/05 16:02:36;;;;;;;2.95;2.50;;;;;;;;;;5098873;28;20854;-83
2022/10/05 16:08:49;;;;;;;3.55;2.88;;;;;;;;;;5097729;28;20229;-84
2022/10/05 16:11:16;;;;;;;3.88;2.65;;;;;;;;;;5080099;28;20219;-84
2022/10/05 16:13:50;;;;;;;2.72;2.53;;;;;;;;;;5076737;28;20227;-83
2022/10/05 16:16:24;;;;;;;3.08;2.78;;;;;;;;;;5093495;28;20234;-84
2022/10/05 16:19:01;;;;;;;2.17;2.08;;;;;;;;;;5097633;28;20204;-83
2022/10/05 16:21:33;;;;;;;2.70;2.50;;;;;;;;;;5097480;28;20210;-85
2022/10/05 16:24:11;;;;;;;2.42;2.22;;;;;;;;;;5097342;28;20315;-83
2022/10/05 16:26:51;;;;;;;3.17;2.10;;;;;;;;;;5097701;28;20200;-84
2022/10/05 16:29:31;;;;;;;2.42;2.22;;;;;;;;;;5096811;28;20238;-83